createdAt,value
2022-11-09T00:02:13.679Z,12.00
2022-11-09T00:05:16.355Z,12.20
2022-11-09T00:08:18.982Z,11.70
2022-11-09T00:11:21.861Z,11.87
2022-11-09T00:14:24.449Z,12.00
2022-11-09T00:17:27.824Z,11.85
2022-11-09T00:20:30.933Z,11.48
2022-11-09T00:23:33.669Z,11.87
2022-11-09T00:26:36.299Z,11.77
2022-11-09T00:29:38.870Z,11.48
2022-11-09T00:32:41.518Z,11.98
2022-11-09T00:35:44.195Z,11.90
2022-11-09T00:38:54.679Z,11.30
2022-11-09T00:41:57.211Z,10.93
2022-11-09T00:44:59.849Z,11.80
2022-11-09T00:48:03.624Z,11.10
2022-11-09T00:51:06.818Z,11.73
2022-11-09T00:54:10.062Z,11.63
2022-11-09T00:57:14.035Z,11.53
2022-11-09T01:00:21.570Z,11.95
2022-11-09T01:03:25.202Z,11.88
2022-11-09T01:06:28.085Z,10.95
2022-11-09T01:09:30.917Z,11.73
2022-11-09T01:12:33.576Z,12.77
2022-11-09T01:15:43.998Z,11.95
2022-11-09T01:18:47.585Z,11.13
2022-11-09T01:21:52.007Z,12.23
2022-11-09T01:24:54.624Z,11.67
2022-11-09T01:28:00.560Z,12.80
2022-11-09T01:31:07.306Z,11.55
2022-11-09T01:34:10.030Z,11.40
2022-11-09T01:37:12.655Z,12.48
2022-11-09T01:40:15.457Z,12.20
2022-11-09T01:43:20.861Z,12.00
2022-11-09T01:46:34.206Z,11.85
2022-11-09T01:53:19.991Z,11.98
2022-11-09T01:56:22.885Z,12.63
2022-11-09T01:59:31.460Z,11.73
2022-11-09T02:02:35.549Z,12.25
2022-11-09T02:05:41.979Z,11.85
2022-11-09T02:08:47.495Z,12.18
2022-11-09T02:11:50.769Z,13.33
2022-11-09T02:14:56.519Z,12.80
2022-11-09T02:17:59.227Z,12.32
2022-11-09T02:21:01.914Z,12.55
2022-11-09T02:24:04.892Z,13.98
2022-11-09T02:27:09.138Z,12.13
2022-11-09T02:30:14.822Z,13.33
2022-11-09T02:33:18.127Z,12.60
2022-11-09T02:36:23.811Z,12.32
2022-11-09T02:39:28.821Z,12.13
2022-11-09T02:42:31.904Z,12.63
2022-11-09T02:45:34.601Z,12.37
2022-11-09T02:48:37.345Z,12.40
2022-11-09T02:51:40.106Z,12.45
2022-11-09T02:54:43.202Z,12.07
2022-11-09T02:57:45.953Z,12.00
2022-11-09T03:00:51.084Z,12.50
2022-11-09T03:03:53.717Z,12.63
2022-11-09T03:06:56.396Z,12.45
2022-11-09T03:09:59.032Z,12.95
2022-11-09T03:13:02.775Z,12.50
2022-11-09T03:16:08.837Z,12.57
2022-11-09T03:19:14.602Z,12.10
2022-11-09T03:22:17.956Z,12.05
2022-11-09T03:25:21.698Z,12.15
2022-11-09T03:28:25.007Z,12.40
2022-11-09T03:31:29.032Z,12.13
2022-11-09T03:34:32.985Z,11.75
2022-11-09T03:37:36.134Z,11.65
2022-11-09T03:40:40.162Z,12.25
2022-11-09T03:43:42.928Z,11.47
2022-11-09T03:46:45.604Z,13.10
2022-11-09T03:49:48.292Z,12.02
2022-11-09T03:52:50.896Z,11.30
2022-11-09T03:55:53.531Z,12.25
2022-11-09T03:58:56.186Z,11.07
2022-11-09T04:01:58.873Z,10.67
2022-11-09T04:05:01.496Z,11.88
2022-11-09T04:08:04.473Z,11.43
2022-11-09T04:11:07.387Z,11.82
2022-11-09T04:14:09.997Z,11.93
2022-11-09T04:17:12.603Z,10.77
2022-11-09T04:20:16.127Z,11.07
2022-11-09T04:23:18.951Z,11.43
2022-11-09T04:26:21.738Z,12.13
2022-11-09T04:29:24.297Z,10.80
2022-11-09T04:32:26.878Z,11.03
2022-11-09T04:35:32.233Z,11.68
2022-11-09T04:38:36.634Z,11.57
2022-11-09T04:41:39.317Z,10.63
2022-11-09T04:44:48.696Z,11.20
2022-11-09T04:47:51.321Z,11.07
2022-11-09T04:51:00.512Z,10.73
2022-11-09T04:54:03.197Z,10.52
2022-11-09T04:57:05.893Z,11.23
2022-11-09T05:00:09.510Z,10.83
2022-11-09T05:03:12.292Z,11.57
2022-11-09T05:06:32.942Z,10.48
2022-11-09T05:09:35.793Z,11.07
2022-11-09T05:12:42.229Z,9.85
2022-11-09T05:15:47.517Z,10.20
2022-11-09T05:18:50.895Z,10.30
2022-11-09T05:21:53.591Z,10.35
2022-11-09T05:24:56.194Z,10.38
2022-11-09T05:27:59.070Z,9.65
2022-11-09T05:31:01.752Z,10.17
2022-11-09T05:34:06.038Z,10.70
2022-11-09T05:37:08.694Z,11.13
2022-11-09T05:40:11.618Z,9.52
2022-11-09T05:43:14.228Z,10.65
2022-11-09T05:46:17.832Z,10.80
2022-11-09T05:49:20.576Z,10.03
2022-11-09T05:52:23.263Z,10.23
2022-11-09T05:55:25.942Z,9.35
2022-11-09T05:58:28.592Z,10.68
2022-11-09T06:01:31.222Z,9.37
2022-11-09T06:04:33.871Z,9.70
2022-11-09T06:07:36.593Z,9.75
2022-11-09T06:10:40.208Z,9.60
2022-11-09T06:13:42.852Z,10.70
2022-11-09T06:16:45.430Z,10.17
2022-11-09T06:19:48.034Z,10.33
2022-11-09T06:23:03.116Z,10.30
2022-11-09T06:26:10.650Z,10.15
2022-11-09T06:29:13.412Z,9.40
2022-11-09T06:32:16.058Z,9.93
2022-11-09T06:35:18.807Z,9.93
2022-11-09T06:38:21.474Z,9.70
2022-11-09T06:41:24.061Z,9.30
2022-11-09T06:44:26.647Z,9.82
2022-11-09T06:47:29.609Z,8.93
2022-11-09T06:50:34.181Z,8.97
2022-11-09T06:53:38.103Z,9.88
2022-11-09T06:56:40.707Z,9.50
2022-11-09T07:03:04.164Z,9.53
2022-11-09T07:06:08.948Z,9.50
2022-11-09T07:09:12.834Z,10.43
2022-11-09T07:12:15.717Z,10.13
2022-11-09T07:15:18.712Z,9.02
2022-11-09T07:18:21.410Z,9.17
2022-11-09T07:21:24.191Z,9.80
2022-11-09T07:24:26.817Z,9.00
2022-11-09T07:27:29.422Z,9.38
2022-11-09T07:30:32.372Z,9.07
2022-11-09T07:33:35.647Z,9.53
2022-11-09T07:36:38.585Z,9.63
2022-11-09T07:39:41.586Z,10.13
2022-11-09T07:42:44.256Z,9.27
2022-11-09T07:45:46.948Z,9.57
2022-11-09T07:48:49.711Z,9.43
2022-11-09T07:51:52.356Z,8.60
2022-11-09T07:54:55.219Z,8.63
2022-11-09T07:58:03.231Z,9.18
2022-11-09T08:01:10.485Z,8.75
2022-11-09T08:04:13.123Z,8.83
2022-11-09T08:07:15.877Z,8.80
2022-11-09T08:10:18.752Z,8.77
2022-11-09T08:13:21.698Z,8.27
2022-11-09T08:16:24.651Z,8.55
2022-11-09T08:19:27.822Z,8.87
2022-11-09T08:22:30.874Z,9.73
2022-11-09T08:25:34.636Z,9.00
2022-11-09T08:28:37.402Z,9.18
2022-11-09T08:31:40.147Z,8.52
2022-11-09T08:34:47.209Z,9.00
2022-11-09T08:37:51.798Z,8.53
2022-11-09T08:40:58.945Z,8.77
2022-11-09T08:44:01.685Z,8.73
2022-11-09T08:47:04.456Z,8.18
2022-11-09T08:50:08.643Z,9.23
2022-11-09T08:53:11.711Z,9.00
2022-11-09T08:56:18.504Z,9.15
2022-11-09T08:59:21.192Z,8.68
2022-11-09T09:02:23.947Z,8.50
2022-11-09T09:05:26.804Z,8.40
2022-11-09T09:08:29.495Z,8.43
2022-11-09T09:11:32.068Z,8.35
2022-11-09T09:14:35.584Z,8.95
2022-11-09T09:17:38.306Z,8.70
2022-11-09T09:20:41.422Z,8.53
2022-11-09T09:23:49.402Z,8.77
2022-11-09T09:26:56.087Z,8.52
2022-11-09T09:29:59.317Z,8.07
2022-11-09T09:33:04.780Z,8.75
2022-11-09T09:36:12.423Z,8.77
2022-11-09T09:39:20.510Z,7.80
2022-11-09T09:42:34.183Z,8.07
2022-11-09T09:45:47.349Z,8.05
2022-11-09T09:49:01.948Z,7.82
2022-11-09T09:52:24.800Z,8.33
2022-11-09T09:55:55.322Z,7.23
2022-11-09T09:59:36.451Z,8.13
2022-11-09T10:02:39.135Z,7.93
2022-11-09T10:06:00.176Z,7.63
2022-11-09T10:09:08.821Z,8.07
2022-11-09T10:12:34.609Z,8.57
2022-11-09T10:15:42.727Z,8.70
2022-11-09T10:18:55.672Z,7.53
2022-11-09T10:22:02.775Z,7.53
2022-11-09T10:29:09.605Z,8.17
2022-11-09T10:32:16.990Z,7.47
2022-11-09T10:35:35.516Z,7.43
2022-11-09T10:38:45.744Z,8.35
2022-11-09T10:42:10.640Z,8.53
2022-11-09T10:45:35.195Z,7.80
2022-11-09T10:48:56.178Z,7.55
2022-11-09T10:52:32.993Z,7.70
2022-11-09T10:56:20.419Z,7.22
2022-11-09T10:59:56.289Z,7.13
2022-11-09T11:03:18.520Z,7.60
2022-11-09T11:06:39.669Z,7.30
2022-11-09T11:10:25.213Z,7.38
2022-11-09T11:13:47.085Z,7.03
2022-11-09T11:17:27.880Z,7.03
2022-11-09T11:21:19.858Z,7.43
2022-11-09T11:25:10.064Z,7.53
2022-11-09T11:28:43.697Z,7.32
2022-11-09T11:32:12.177Z,7.10
2022-11-09T11:35:52.822Z,7.60
2022-11-09T11:39:42.078Z,6.57
2022-11-09T11:43:13.658Z,7.45
2022-11-09T11:46:45.688Z,6.90
2022-11-09T11:50:24.849Z,7.68
2022-11-09T11:54:25.137Z,8.00
2022-11-09T11:57:49.149Z,7.90
2022-11-09T12:01:31.459Z,7.70
2022-11-09T12:05:17.448Z,8.27
2022-11-09T12:09:03.267Z,8.05
2022-11-09T12:12:45.954Z,7.67
2022-11-09T12:16:24.860Z,7.23
2022-11-09T12:20:02.394Z,6.97
2022-11-09T12:23:41.935Z,7.38
2022-11-09T12:27:32.600Z,8.10
2022-11-09T12:31:35.472Z,8.87
2022-11-09T12:35:29.612Z,10.07
2022-11-09T12:39:12.243Z,11.30
2022-11-09T12:42:41.791Z,11.40
2022-11-09T12:46:05.899Z,9.95
2022-11-09T12:49:42.361Z,9.73
2022-11-09T12:53:05.216Z,9.77
2022-11-09T12:56:42.474Z,9.88
2022-11-09T13:00:36.907Z,10.48
2022-11-09T13:04:06.378Z,11.73
2022-11-09T13:07:52.373Z,11.10
2022-11-09T13:11:17.605Z,11.07
2022-11-09T13:14:39.066Z,11.02
2022-11-09T13:18:35.268Z,9.93
2022-11-09T13:21:57.268Z,10.93
2022-11-09T13:25:48.410Z,11.53
2022-11-09T13:29:15.979Z,11.50
2022-11-09T13:32:37.362Z,10.88
2022-11-09T13:36:09.573Z,11.50
2022-11-09T13:39:32.877Z,12.68
2022-11-09T13:43:10.710Z,10.97
2022-11-09T13:46:38.426Z,12.63
2022-11-09T13:49:59.598Z,12.85
2022-11-09T13:53:38.725Z,13.32
2022-11-09T13:57:07.002Z,13.80
2022-11-09T14:00:28.735Z,12.37
2022-11-09T14:03:52.156Z,11.73
2022-11-09T14:07:25.190Z,12.77
2022-11-09T14:11:07.307Z,12.77
2022-11-09T14:14:49.908Z,12.18
2022-11-09T14:18:15.245Z,11.90
2022-11-09T14:21:49.050Z,12.47
2022-11-09T14:25:18.964Z,13.30
2022-11-09T14:28:40.271Z,13.15
2022-11-09T14:32:22.669Z,12.68
2022-11-09T14:35:44.490Z,12.50
2022-11-09T14:39:14.397Z,12.67
2022-11-09T14:42:35.977Z,11.73
2022-11-09T14:46:01.215Z,12.18
2022-11-09T14:49:25.551Z,12.82
2022-11-09T14:52:47.266Z,12.70
2022-11-09T14:56:14.058Z,12.67
2022-11-09T14:59:36.369Z,11.98
2022-11-09T15:02:58.007Z,11.75
2022-11-09T15:06:19.686Z,12.32
2022-11-09T15:09:48.304Z,11.83
2022-11-09T15:13:09.848Z,12.23
2022-11-09T15:16:31.864Z,12.27
2022-11-09T15:19:59.584Z,11.95
2022-11-09T15:23:24.499Z,11.82
2022-11-09T15:26:48.675Z,12.27
2022-11-09T15:30:35.201Z,12.30
2022-11-09T15:33:58.104Z,11.63
2022-11-09T15:37:26.125Z,11.57
2022-11-09T15:40:47.130Z,12.38
2022-11-09T15:44:08.809Z,11.67
2022-11-09T15:47:33.737Z,11.93
2022-11-09T15:50:55.202Z,11.52
2022-11-09T15:54:17.302Z,11.95
2022-11-09T15:57:38.831Z,11.43
2022-11-09T16:01:00.401Z,11.67
2022-11-09T16:04:22.107Z,11.20
2022-11-09T16:07:51.564Z,11.45
2022-11-09T16:11:13.368Z,11.75
2022-11-09T16:14:35.644Z,11.90
2022-11-09T16:17:57.288Z,11.97
2022-11-09T16:21:19.034Z,11.27
2022-11-09T16:24:40.797Z,10.82
2022-11-09T16:28:02.350Z,11.32
2022-11-09T16:31:52.796Z,10.68
2022-11-09T16:38:53.020Z,11.77
2022-11-09T16:42:17.916Z,12.27
2022-11-09T16:45:49.190Z,12.13
2022-11-09T16:49:11.302Z,11.60
2022-11-09T16:52:34.287Z,11.27
2022-11-09T16:55:57.062Z,12.07
2022-11-09T16:59:19.690Z,11.65
2022-11-09T17:02:41.309Z,11.82
2022-11-09T17:06:04.471Z,11.07
2022-11-09T17:09:25.963Z,11.53
2022-11-09T17:12:47.991Z,11.23
2022-11-09T17:16:12.982Z,11.68
2022-11-09T17:19:36.102Z,11.88
2022-11-09T17:22:57.625Z,11.40
2022-11-09T17:26:20.934Z,10.53
2022-11-09T17:29:43.383Z,11.70
2022-11-09T17:33:06.443Z,11.25
2022-11-09T17:36:49.226Z,10.85
2022-11-09T17:40:14.624Z,11.90
2022-11-09T17:43:38.997Z,11.47
2022-11-09T17:47:01.259Z,10.90
2022-11-09T17:50:26.567Z,12.38
2022-11-09T17:53:52.495Z,11.32
2022-11-09T17:57:14.483Z,12.23
2022-11-09T18:00:37.097Z,11.37
2022-11-09T18:04:03.005Z,11.80
2022-11-09T18:07:30.342Z,11.85
2022-11-09T18:10:52.369Z,11.82
2022-11-09T18:14:16.528Z,11.38
2022-11-09T18:17:39.601Z,11.27
2022-11-09T18:21:20.770Z,12.20
2022-11-09T18:24:44.696Z,12.02
2022-11-09T18:28:09.286Z,11.75
2022-11-09T18:31:32.425Z,12.30
2022-11-09T18:34:55.715Z,11.37
2022-11-09T18:38:20.099Z,11.97
2022-11-09T18:41:42.958Z,12.35
2022-11-09T18:45:05.082Z,12.85
2022-11-09T18:48:28.100Z,12.40
2022-11-09T18:51:50.852Z,12.03
2022-11-09T18:55:12.481Z,12.70
2022-11-09T18:58:34.977Z,11.82
2022-11-09T19:01:56.827Z,10.55
2022-11-09T19:05:18.205Z,11.75
2022-11-09T19:08:58.615Z,11.43
2022-11-09T19:12:20.388Z,12.10
2022-11-09T19:15:44.821Z,11.10
2022-11-09T19:19:06.299Z,11.35
2022-11-09T19:22:29.196Z,11.10
2022-11-09T19:25:51.219Z,11.23
2022-11-09T19:29:15.235Z,11.10
2022-11-09T19:32:36.872Z,11.20
2022-11-09T19:36:27.980Z,11.63
2022-11-09T19:39:43.371Z,11.60
2022-11-09T19:43:05.384Z,10.83
2022-11-09T19:46:28.042Z,12.53
2022-11-09T19:49:49.350Z,11.60
2022-11-09T19:53:11.137Z,11.93
2022-11-09T19:56:33.611Z,12.40
2022-11-09T19:59:58.861Z,11.33
2022-11-09T20:03:20.586Z,11.33
2022-11-09T20:06:42.439Z,13.15
2022-11-09T20:10:06.698Z,12.02
2022-11-09T20:13:28.019Z,11.30
2022-11-09T20:16:49.665Z,12.23
2022-11-09T20:20:12.416Z,12.33
2022-11-09T20:23:34.687Z,11.02
2022-11-09T20:26:56.566Z,11.82
2022-11-09T20:30:19.151Z,11.52
2022-11-09T20:33:41.713Z,11.03
2022-11-09T20:37:03.482Z,11.13
2022-11-09T20:40:26.490Z,12.35
2022-11-09T20:43:47.684Z,11.43
2022-11-09T20:47:10.190Z,11.70
2022-11-09T20:50:31.695Z,12.43
2022-11-09T20:53:53.265Z,10.83
2022-11-09T20:57:14.802Z,12.07
2022-11-09T21:00:37.711Z,12.32
2022-11-09T21:04:00.498Z,12.07
2022-11-09T21:07:22.080Z,11.93
2022-11-09T21:10:43.852Z,11.83
2022-11-09T21:14:05.509Z,12.40
2022-11-09T21:17:26.766Z,11.90
2022-11-09T21:20:48.747Z,11.60
2022-11-09T21:24:30.830Z,11.73
2022-11-09T21:28:13.368Z,11.23
2022-11-09T21:31:34.550Z,11.50
2022-11-09T21:34:55.833Z,11.60
2022-11-09T21:38:17.461Z,11.32
2022-11-09T21:41:39.941Z,10.73
2022-11-09T21:45:07.180Z,11.20
2022-11-09T21:48:28.569Z,11.52
2022-11-09T21:51:49.988Z,11.77
2022-11-09T21:55:11.236Z,11.85
2022-11-09T21:58:32.566Z,11.00
2022-11-09T22:01:53.669Z,11.43
2022-11-09T22:05:17.685Z,11.90
2022-11-09T22:08:43.528Z,11.88
2022-11-09T22:12:23.316Z,11.55
2022-11-09T22:16:03.353Z,10.97
2022-11-09T22:19:43.428Z,10.77
2022-11-09T22:23:06.297Z,11.38
2022-11-09T22:26:29.288Z,11.52
2022-11-09T22:29:51.450Z,11.10
2022-11-09T22:33:12.681Z,10.83
2022-11-09T22:36:33.939Z,11.03
2022-11-09T22:39:55.378Z,11.50
2022-11-09T22:43:17.176Z,12.05
2022-11-09T22:46:39.167Z,11.43
2022-11-09T22:50:00.447Z,11.47
2022-11-09T22:53:21.695Z,11.13
2022-11-09T22:56:43.037Z,10.55
2022-11-09T23:00:04.930Z,10.75
2022-11-09T23:03:26.873Z,11.75
2022-11-09T23:06:48.482Z,11.20
2022-11-09T23:10:10.454Z,11.23
2022-11-09T23:13:31.766Z,11.35
2022-11-09T23:16:52.736Z,11.63
2022-11-09T23:20:13.922Z,11.68
2022-11-09T23:23:35.192Z,11.47
2022-11-09T23:26:56.361Z,11.43
2022-11-09T23:30:18.161Z,10.38
2022-11-09T23:33:39.615Z,10.52
2022-11-09T23:37:00.712Z,11.20
2022-11-09T23:40:21.901Z,10.70
2022-11-09T23:43:47.681Z,10.87
2022-11-09T23:47:10.258Z,10.70
2022-11-09T23:50:33.318Z,10.60
2022-11-09T23:53:54.701Z,11.45
2022-11-09T23:57:16.002Z,10.20
